Time;durP1;ratioP1;P1;durP2;ratioP2;P2;SDS_P1;SDS_P2;PMS_P1;PMS_P2;Temp;Humidity;BMP_temperature;BMP_pressure;BME280_temperature;BME280_humidity;BME280_pressure;Samples;Min_cycle;Max_cycle;Signal;HPM_P1;HPM_P2
2022/10/15 00:01:06;;;;;;;18.87;15.30;;;14.40;99.90;;;;;;4916551;29;20586;-77
2022/10/15 00:03:33;;;;;;;17.33;15.00;;;14.40;99.90;;;;;;4916178;29;20314;-84
2022/10/15 00:06:03;;;;;;;16.73;15.00;;;14.40;99.90;;;;;;4932387;29;20202;-69
2022/10/15 00:08:29;;;;;;;16.87;14.97;;;14.40;99.90;;;;;;4926411;29;20297;-72
2022/10/15 00:10:54;;;;;;;17.80;15.90;;;14.40;99.90;;;;;;4916273;29;20374;-73
2022/10/15 00:13:20;;;;;;;19.97;15.87;;;14.40;99.90;;;;;;4938237;29;20206;-74
2022/10/15 00:15:45;;;;;;;16.53;14.57;;;14.40;99.90;;;;;;4915581;29;20812;-72
2022/10/15 00:18:10;;;;;;;16.90;14.50;;;14.40;99.90;;;;;;4935433;29;20286;-72
2022/10/15 00:20:40;;;;;;;16.93;15.23;;;14.40;99.90;;;;;;4918217;29;20195;-72
2022/10/15 00:23:05;;;;;;;17.63;14.90;;;14.40;99.90;;;;;;4919350;29;20263;-70
2022/10/15 00:25:31;;;;;;;18.57;16.57;;;14.40;99.90;;;;;;4921028;29;20618;-72
2022/10/15 00:27:56;;;;;;;16.93;14.97;;;14.40;99.90;;;;;;4921539;29;20199;-73
2022/10/15 00:30:22;;;;;;;20.53;15.33;;;14.30;99.90;;;;;;4915327;29;20238;-72
2022/10/15 00:32:47;;;;;;;16.17;14.47;;;14.30;99.90;;;;;;4918241;29;20617;-73
2022/10/15 00:35:13;;;;;;;17.17;14.60;;;14.30;99.90;;;;;;4912655;29;20651;-69
2022/10/15 00:37:38;;;;;;;17.27;15.43;;;14.30;99.90;;;;;;4921984;29;20295;-69
2022/10/15 00:40:05;;;;;;;17.97;14.70;;;14.30;99.90;;;;;;4914115;29;20194;-72
2022/10/15 00:42:30;;;;;;;17.87;15.13;;;14.30;99.90;;;;;;4919081;29;20282;-71
2022/10/15 00:44:57;;;;;;;18.73;16.73;;;14.30;99.90;;;;;;4917993;29;20705;-69
2022/10/15 00:47:32;;;;;;;18.37;15.43;;;14.20;99.90;;;;;;4920392;29;20308;-69
2022/10/15 00:50:07;;;;;;;17.67;15.77;;;14.20;99.90;;;;;;4915482;29;20226;-71
2022/10/15 00:52:58;;;;;;;18.43;15.73;;;14.20;99.90;;;;;;4921069;29;20244;-71
2022/10/15 00:55:28;;;;;;;18.50;16.50;;;14.20;99.90;;;;;;4917121;29;20651;-74
2022/10/15 00:57:55;;;;;;;17.47;15.63;;;14.20;99.90;;;;;;4920394;29;20361;-72
2022/10/15 01:00:20;;;;;;;19.17;16.07;;;14.20;99.90;;;;;;4913287;29;20308;-71
2022/10/15 01:02:46;;;;;;;19.80;16.07;;;14.20;99.90;;;;;;4933595;29;20374;-70
2022/10/15 01:05:14;;;;;;;19.60;15.87;;;14.20;99.90;;;;;;4922320;29;20211;-71
2022/10/15 01:07:39;;;;;;;18.43;16.53;;;14.10;99.90;;;;;;4931363;29;20790;-71
2022/10/15 01:10:06;;;;;;;17.90;16.07;;;14.10;99.90;;;;;;4920016;29;20296;-70
2022/10/15 01:12:51;;;;;;;20.00;17.73;;;14.10;99.90;;;;;;4935220;29;20261;-69
2022/10/15 01:15:23;;;;;;;18.17;16.27;;;14.10;99.90;;;;;;4914621;29;20309;-72
2022/10/15 01:18:02;;;;;;;18.13;16.23;;;14.20;99.90;;;;;;4929297;29;20209;-71
2022/10/15 01:20:48;;;;;;;18.23;16.07;;;14.10;99.90;;;;;;4927583;29;20281;-72
2022/10/15 01:23:51;;;;;;;19.87;14.97;;;14.10;99.90;;;;;;4908456;29;20222;-74
2022/10/15 01:26:45;;;;;;;21.17;16.40;;;14.10;99.90;;;;;;4911379;29;20183;-69
2022/10/15 01:29:49;;;;;;;23.13;19.63;;;14.10;99.90;;;;;;4917387;29;20552;-69
2022/10/15 01:32:22;;;;;;;19.03;16.17;;;14.10;99.90;;;;;;4923569;29;20236;-71
2022/10/15 01:35:12;;;;;;;18.70;16.70;;;14.00;99.90;;;;;;4906409;29;20242;-71
2022/10/15 01:37:58;;;;;;;20.07;17.57;;;14.00;99.90;;;;;;4923355;29;20621;-69
2022/10/15 01:40:55;;;;;;;17.40;15.53;;;14.10;99.90;;;;;;4925632;29;20194;-69
2022/10/15 01:43:27;;;;;;;17.73;15.83;;;14.00;99.90;;;;;;4923380;29;20194;-71
2022/10/15 01:45:57;;;;;;;19.23;17.00;;;14.00;99.90;;;;;;4925611;29;20258;-71
2022/10/15 01:48:26;;;;;;;23.40;17.80;;;14.00;99.90;;;;;;4928716;29;20285;-71
2022/10/15 01:50:55;;;;;;;22.57;18.50;;;14.00;99.90;;;;;;4921480;29;20218;-70
2022/10/15 01:53:25;;;;;;;20.37;16.90;;;14.00;99.90;;;;;;4931553;29;20254;-71
2022/10/15 01:55:56;;;;;;;19.77;17.70;;;14.00;99.90;;;;;;4912027;29;20226;-71
2022/10/15 01:58:23;;;;;;;20.37;17.60;;;14.00;99.90;;;;;;4911345;29;20222;-71
2022/10/15 02:00:52;;;;;;;23.57;17.67;;;14.00;99.90;;;;;;4916030;29;20205;-71
2022/10/15 02:03:17;;;;;;;19.73;16.57;;;14.00;99.90;;;;;;4949786;29;20235;-72
2022/10/15 02:05:48;;;;;;;19.60;17.07;;;14.00;99.90;;;;;;4950355;28;20273;-71
2022/10/15 02:08:27;;;;;;;19.70;16.07;;;14.00;99.90;;;;;;4949784;29;20187;-71
2022/10/15 02:10:58;;;;;;;18.57;16.70;;;14.00;99.90;;;;;;4949447;28;20217;-72
2022/10/15 02:13:51;;;;;;;19.07;16.33;;;14.00;99.90;;;;;;4949758;28;20864;-73
2022/10/15 02:16:27;;;;;;;19.57;17.50;;;14.10;99.90;;;;;;4949775;28;20696;-73
2022/10/15 02:19:16;;;;;;;20.63;17.43;;;14.10;99.90;;;;;;4949605;28;20185;-71
2022/10/15 02:22:05;;;;;;;19.87;17.23;;;14.10;99.90;;;;;;4949496;28;20558;-72
2022/10/15 02:24:40;;;;;;;21.33;17.60;;;14.10;99.90;;;;;;4949308;29;20248;-70
2022/10/15 02:27:07;;;;;;;19.87;17.77;;;14.10;99.90;;;;;;4949426;28;20239;-71
2022/10/15 02:29:35;;;;;;;20.60;17.27;;;14.10;99.90;;;;;;4949525;28;20187;-70
2022/10/15 02:32:03;;;;;;;19.93;17.80;;;14.10;99.90;;;;;;4950389;28;20229;-72
2022/10/15 02:34:31;;;;;;;20.30;18.07;;;14.10;99.90;;;;;;4929650;28;20191;-72
2022/10/15 02:36:59;;;;;;;19.53;17.40;;;14.10;99.90;;;;;;4930516;29;20190;-72
2022/10/15 02:39:25;;;;;;;20.87;17.47;;;14.10;99.90;;;;;;4929380;29;20234;-71
2022/10/15 02:41:52;;;;;;;19.90;17.80;;;14.10;99.90;;;;;;4930228;29;20279;-71
2022/10/15 02:44:18;;;;;;;23.13;17.77;;;14.10;99.90;;;;;;4930221;29;20190;-70
2022/10/15 02:46:44;;;;;;;19.73;17.63;;;14.10;99.90;;;;;;4925517;29;20278;-70
2022/10/15 02:49:09;;;;;;;20.80;17.53;;;14.10;99.90;;;;;;4935992;29;20203;-70
2022/10/15 02:51:35;;;;;;;19.87;17.77;;;14.10;99.90;;;;;;4919531;29;20226;-69
2022/10/15 02:54:05;;;;;;;19.47;17.47;;;14.10;99.90;;;;;;4933185;29;20243;-69
2022/10/15 02:56:31;;;;;;;19.20;16.70;;;14.10;99.90;;;;;;4917328;29;20211;-70
2022/10/15 02:58:56;;;;;;;20.20;17.73;;;14.10;99.90;;;;;;4932668;29;20725;-70
2022/10/15 03:01:22;;;;;;;20.83;17.20;;;14.10;99.90;;;;;;4920469;29;20508;-70
2022/10/15 03:03:47;;;;;;;21.83;18.40;;;14.00;99.90;;;;;;4925174;29;20641;-70
2022/10/15 03:06:13;;;;;;;18.90;17.00;;;14.00;99.90;;;;;;4919933;29;20257;-70
2022/10/15 03:08:41;;;;;;;21.07;17.60;;;14.00;99.90;;;;;;4939459;29;20207;-70
2022/10/15 03:11:07;;;;;;;20.40;17.37;;;14.00;99.90;;;;;;4919289;29;20255;-69
2022/10/15 03:13:35;;;;;;;19.00;16.93;;;14.00;99.90;;;;;;4925200;29;20195;-70
2022/10/15 03:16:04;;;;;;;23.50;18.87;;;13.90;99.90;;;;;;4925096;29;20397;-70
2022/10/15 03:18:29;;;;;;;21.97;17.53;;;13.90;99.90;;;;;;4938129;29;20201;-71
2022/10/15 03:20:56;;;;;;;19.70;17.67;;;13.90;99.90;;;;;;4920763;29;20211;-70
2022/10/15 03:23:22;;;;;;;21.37;18.30;;;13.90;99.90;;;;;;4929514;29;20337;-69
2022/10/15 03:25:47;;;;;;;20.67;17.83;;;13.90;99.90;;;;;;4924032;29;20626;-69
2022/10/15 03:28:13;;;;;;;19.27;17.20;;;13.90;99.90;;;;;;4943589;29;20278;-69
2022/10/15 03:30:39;;;;;;;19.33;16.53;;;13.80;99.90;;;;;;4926079;29;20207;-70
2022/10/15 03:33:04;;;;;;;18.50;16.57;;;13.90;99.90;;;;;;4937869;29;20661;-70
2022/10/15 03:35:30;;;;;;;22.00;18.30;;;13.80;99.90;;;;;;4929044;29;20287;-70
2022/10/15 03:37:55;;;;;;;20.03;17.07;;;13.80;99.90;;;;;;4941116;29;20191;-71
2022/10/15 03:40:20;;;;;;;18.97;16.70;;;13.80;99.90;;;;;;4936483;29;20246;-71
2022/10/15 03:42:52;;;;;;;20.30;16.63;;;13.80;99.90;;;;;;4917010;29;20286;-71
2022/10/15 03:45:22;;;;;;;21.30;17.83;;;13.80;99.90;;;;;;4936201;29;20281;-71
2022/10/15 03:47:48;;;;;;;20.60;17.37;;;13.80;99.90;;;;;;4917456;29;20197;-71
2022/10/15 03:50:14;;;;;;;22.27;18.20;;;13.80;99.90;;;;;;4936683;29;20285;-71
2022/10/15 03:52:39;;;;;;;18.90;16.93;;;13.80;99.90;;;;;;4923055;29;20237;-71
2022/10/15 03:55:06;;;;;;;18.57;16.47;;;13.80;99.90;;;;;;4927385;28;20540;-71
2022/10/15 03:57:32;;;;;;;20.93;16.93;;;13.80;99.90;;;;;;4919062;29;20202;-71
2022/10/15 03:59:58;;;;;;;18.60;16.60;;;13.70;99.90;;;;;;4928177;29;20208;-72
2022/10/15 04:02:24;;;;;;;19.47;17.33;;;13.70;99.90;;;;;;4920102;29;20287;-71
2022/10/15 04:04:52;;;;;;;20.50;16.83;;;13.70;99.90;;;;;;4924847;29;20204;-71
2022/10/15 04:07:20;;;;;;;17.97;16.00;;;13.70;99.90;;;;;;4912866;29;20226;-72
2022/10/15 04:09:46;;;;;;;19.37;16.67;;;13.70;99.90;;;;;;4940200;29;20199;-69
2022/10/15 04:12:12;;;;;;;20.57;17.50;;;13.70;99.90;;;;;;4915818;29;20208;-69
2022/10/15 04:14:38;;;;;;;20.83;18.07;;;13.80;99.90;;;;;;4936935;28;20327;-69
2022/10/15 04:17:04;;;;;;;18.73;16.73;;;13.70;99.90;;;;;;4917852;29;20785;-69
2022/10/15 04:19:29;;;;;;;18.87;16.87;;;13.70;99.90;;;;;;4935246;29;20678;-69
2022/10/15 04:21:55;;;;;;;20.33;18.03;;;13.70;99.90;;;;;;4913253;29;20642;-69
2022/10/15 04:24:21;;;;;;;18.53;16.53;;;13.70;99.90;;;;;;4937234;29;20217;-69
2022/10/15 04:26:47;;;;;;;19.67;17.23;;;13.70;99.90;;;;;;4910893;29;20203;-69
2022/10/15 04:29:12;;;;;;;20.30;16.73;;;13.70;99.90;;;;;;4929999;29;20199;-70
2022/10/15 04:31:38;;;;;;;18.33;16.20;;;13.70;99.90;;;;;;4920920;29;20259;-69
2022/10/15 04:34:04;;;;;;;17.67;15.27;;;13.70;99.90;;;;;;4934619;29;20230;-70
2022/10/15 04:36:29;;;;;;;20.30;17.87;;;13.70;99.90;;;;;;4917074;29;20214;-69
2022/10/15 04:38:55;;;;;;;17.20;15.43;;;13.70;99.90;;;;;;4940490;29;20194;-70
2022/10/15 04:41:20;;;;;;;22.70;17.47;;;13.70;99.90;;;;;;4917980;29;20805;-70
2022/10/15 04:43:46;;;;;;;18.23;16.27;;;13.70;99.90;;;;;;4928718;29;20199;-70
2022/10/15 04:46:11;;;;;;;17.93;16.03;;;13.70;99.90;;;;;;4928054;29;20679;-70
2022/10/15 04:48:37;;;;;;;17.73;16.00;;;13.70;99.90;;;;;;4944977;29;20216;-69
2022/10/15 04:51:08;;;;;;;18.67;16.13;;;13.80;99.90;;;;;;4911206;28;20540;-70
2022/10/15 04:53:34;;;;;;;18.53;15.67;;;13.80;99.90;;;;;;4942903;29;20229;-72
2022/10/15 04:56:01;;;;;;;18.40;15.43;;;13.80;99.90;;;;;;4923795;29;20210;-72
2022/10/15 04:58:28;;;;;;;17.50;15.70;;;13.80;99.90;;;;;;4931837;29;20217;-72
2022/10/15 05:00:54;;;;;;;18.67;16.67;;;13.80;99.90;;;;;;4926928;29;20229;-75
2022/10/15 05:03:19;;;;;;;20.07;16.20;;;13.80;99.90;;;;;;4945804;29;20216;-75
2022/10/15 05:05:45;;;;;;;18.33;16.13;;;13.80;99.90;;;;;;4910418;28;20290;-75
2022/10/15 05:08:10;;;;;;;18.27;15.63;;;13.80;99.90;;;;;;4925160;29;20199;-76
2022/10/15 05:10:36;;;;;;;16.70;14.83;;;13.90;99.90;;;;;;4937415;29;20225;-77
2022/10/15 05:13:02;;;;;;;15.87;13.97;;;13.90;99.90;;;;;;4918110;28;20203;-75
2022/10/15 05:15:28;;;;;;;19.57;15.17;;;13.90;99.90;;;;;;4924390;29;20316;-75
2022/10/15 05:17:53;;;;;;;19.17;14.80;;;13.80;99.90;;;;;;4920747;29;20187;-76
2022/10/15 05:20:19;;;;;;;17.20;14.93;;;13.70;99.90;;;;;;4925924;29;20236;-75
2022/10/15 05:22:44;;;;;;;20.57;14.67;;;13.70;99.90;;;;;;4919772;29;20184;-75
2022/10/15 05:25:10;;;;;;;16.57;14.90;;;13.60;99.90;;;;;;4928336;29;20208;-75
2022/10/15 05:27:35;;;;;;;17.87;16.07;;;13.60;99.90;;;;;;4914749;29;20241;-75
2022/10/15 05:30:01;;;;;;;18.57;15.10;;;13.50;99.90;;;;;;4924744;29;20302;-75
2022/10/15 05:32:26;;;;;;;16.53;13.93;;;13.50;99.90;;;;;;4917689;29;20764;-75
2022/10/15 05:34:51;;;;;;;17.07;15.10;;;13.50;99.90;;;;;;4931845;29;20230;-75
2022/10/15 05:37:17;;;;;;;18.13;15.63;;;13.50;99.90;;;;;;4906718;29;20245;-75
2022/10/15 05:39:42;;;;;;;16.97;15.27;;;13.40;99.90;;;;;;4928921;29;20203;-75
2022/10/15 05:42:09;;;;;;;17.00;15.30;;;13.40;99.90;;;;;;4921939;29;20243;-75
2022/10/15 05:44:34;;;;;;;16.77;15.00;;;13.40;99.90;;;;;;4938022;29;20301;-74
2022/10/15 05:47:00;;;;;;;15.93;14.33;;;13.40;99.90;;;;;;4925585;29;20301;-75
2022/10/15 05:49:25;;;;;;;18.37;16.27;;;13.40;99.90;;;;;;4926657;29;20557;-75
2022/10/15 05:51:51;;;;;;;17.27;14.57;;;13.40;99.90;;;;;;4917049;29;20242;-75
2022/10/15 05:54:16;;;;;;;18.63;15.57;;;13.30;99.90;;;;;;4932197;29;20242;-75
2022/10/15 05:56:41;;;;;;;17.90;16.07;;;13.30;99.90;;;;;;4914115;29;20800;-75
2022/10/15 05:59:07;;;;;;;19.63;14.83;;;13.20;99.90;;;;;;4942016;29;20195;-75
2022/10/15 06:01:32;;;;;;;20.07;16.13;;;13.20;99.90;;;;;;4920920;29;20293;-74
2022/10/15 06:03:58;;;;;;;18.17;14.90;;;13.20;99.90;;;;;;4931473;29;20561;-75
2022/10/15 06:06:27;;;;;;;17.63;15.33;;;13.20;99.90;;;;;;4916062;29;20271;-73
2022/10/15 06:08:53;;;;;;;16.63;14.90;;;13.20;99.90;;;;;;4932497;29;20322;-75
2022/10/15 06:11:20;;;;;;;20.60;16.83;;;13.10;99.90;;;;;;4917050;29;20707;-75
2022/10/15 06:13:46;;;;;;;19.20;15.93;;;13.10;99.90;;;;;;4937105;29;20665;-74
2022/10/15 06:16:13;;;;;;;18.37;16.17;;;13.10;99.90;;;;;;4924205;29;20225;-74
2022/10/15 06:18:39;;;;;;;17.43;15.50;;;13.10;99.90;;;;;;4937548;29;20290;-74
2022/10/15 06:21:05;;;;;;;18.80;16.23;;;13.10;99.90;;;;;;4930247;29;20218;-74
2022/10/15 06:23:31;;;;;;;17.33;14.90;;;13.10;99.90;;;;;;4924549;29;20210;-74
2022/10/15 06:26:01;;;;;;;17.63;15.70;;;13.10;99.90;;;;;;4929191;29;20222;-74
2022/10/15 06:28:26;;;;;;;17.53;15.83;;;13.20;99.90;;;;;;4913194;29;20681;-74
2022/10/15 06:30:52;;;;;;;18.80;16.73;;;13.20;99.90;;;;;;4926909;29;20211;-75
2022/10/15 06:33:17;;;;;;;16.67;14.87;;;13.20;99.90;;;;;;4914845;29;20706;-75
2022/10/15 06:35:43;;;;;;;21.07;16.93;;;13.30;99.90;;;;;;4931089;29;20266;-75
2022/10/15 06:38:09;;;;;;;17.03;15.07;;;13.30;99.90;;;;;;4918666;29;20623;-75
2022/10/15 06:40:35;;;;;;;16.50;14.90;;;13.40;99.90;;;;;;4929923;29;20635;-74
2022/10/15 06:43:06;;;;;;;20.03;16.03;;;13.50;99.90;;;;;;4918735;29;20290;-75
2022/10/15 06:45:35;;;;;;;17.27;14.50;;;13.50;99.90;;;;;;4940072;29;20219;-75
2022/10/15 06:48:02;;;;;;;15.97;14.43;;;13.60;99.90;;;;;;4921639;29;20191;-72
2022/10/15 06:50:27;;;;;;;16.60;14.20;;;13.60;99.90;;;;;;4936866;29;20238;-73
2022/10/15 06:52:53;;;;;;;21.53;16.07;;;13.60;99.90;;;;;;4924181;29;20230;-73
2022/10/15 06:55:18;;;;;;;17.80;14.40;;;13.70;99.90;;;;;;4931703;28;20189;-73
2022/10/15 06:57:44;;;;;;;17.43;15.60;;;13.70;99.90;;;;;;4918160;29;20179;-73
2022/10/15 07:00:10;;;;;;;16.63;15.00;;;13.80;99.90;;;;;;4933583;29;20551;-73
2022/10/15 07:02:35;;;;;;;19.70;15.10;;;13.80;99.90;;;;;;4922529;29;20226;-72
2022/10/15 07:05:01;;;;;;;15.40;13.80;;;13.90;99.90;;;;;;4932734;29;20662;-73
2022/10/15 07:07:26;;;;;;;17.60;14.93;;;14.00;99.90;;;;;;4917813;29;20214;-73
2022/10/15 07:09:54;;;;;;;18.13;13.80;;;14.10;99.90;;;;;;4945865;29;20466;-73
2022/10/15 07:12:21;;;;;;;16.70;13.43;;;14.10;99.90;;;;;;4924448;29;20275;-73
2022/10/15 07:14:47;;;;;;;17.63;13.83;;;14.10;99.90;;;;;;4940499;29;20289;-72
2022/10/15 07:17:13;;;;;;;17.23;15.27;;;14.20;99.90;;;;;;4914371;29;20227;-78
2022/10/15 07:19:39;;;;;;;15.63;14.03;;;14.20;99.90;;;;;;4943663;29;20605;-76
2022/10/15 07:22:04;;;;;;;15.13;13.43;;;14.30;99.90;;;;;;4924472;29;20528;-77
2022/10/15 07:24:30;;;;;;;13.70;12.23;;;14.40;99.90;;;;;;4936823;29;20293;-76
2022/10/15 07:26:55;;;;;;;16.23;13.13;;;14.40;99.90;;;;;;4924041;29;20534;-78
2022/10/15 07:29:21;;;;;;;18.53;14.17;;;14.40;99.90;;;;;;4938490;29;20298;-78
2022/10/15 07:31:46;;;;;;;16.63;13.90;;;14.50;99.90;;;;;;4921509;29;20221;-78
2022/10/15 07:34:12;;;;;;;16.40;13.30;;;14.50;99.90;;;;;;4935405;29;20199;-78
2022/10/15 07:36:38;;;;;;;13.97;12.50;;;14.50;99.90;;;;;;4926099;29;20754;-78
2022/10/15 07:39:03;;;;;;;12.90;11.60;;;14.60;99.90;;;;;;4931935;29;20210;-78
2022/10/15 07:41:29;;;;;;;17.93;13.00;;;14.60;99.90;;;;;;4918450;29;20203;-78
2022/10/15 07:43:55;;;;;;;14.40;12.90;;;14.70;99.90;;;;;;4922595;29;20302;-78
2022/10/15 07:46:20;;;;;;;13.90;11.77;;;14.80;99.90;;;;;;4935830;29;20281;-79
2022/10/15 07:48:46;;;;;;;16.70;13.63;;;14.80;99.90;;;;;;4934166;29;20524;-73
2022/10/15 07:51:11;;;;;;;13.20;11.57;;;15.00;99.90;;;;;;4921806;29;20282;-74
2022/10/15 07:53:37;;;;;;;13.67;12.27;;;15.00;99.90;;;;;;4929513;29;20230;-67
2022/10/15 07:56:09;;;;;;;11.87;10.67;;;15.10;99.90;;;;;;4929741;29;20597;-69
2022/10/15 07:58:36;;;;;;;13.37;11.93;;;15.20;99.90;;;;;;4919456;29;20750;-76
2022/10/15 08:01:06;;;;;;;13.57;11.17;;;15.20;99.90;;;;;;4934371;29;20215;-73
2022/10/15 08:03:32;;;;;;;12.17;10.50;;;15.30;99.90;;;;;;4909476;29;20195;-75
2022/10/15 08:06:03;;;;;;;12.57;10.83;;;15.30;99.90;;;;;;4936602;29;20229;-75
2022/10/15 08:08:29;;;;;;;10.87;9.83;;;15.30;99.90;;;;;;4934048;28;20731;-73
2022/10/15 08:10:56;;;;;;;12.40;11.20;;;15.30;99.90;;;;;;4925102;28;20223;-76
2022/10/15 08:13:22;;;;;;;12.17;11.00;;;15.30;99.90;;;;;;4915839;29;20754;-72
2022/10/15 08:15:48;;;;;;;12.37;10.70;;;15.30;99.90;;;;;;4926092;29;20294;-72
2022/10/15 08:18:13;;;;;;;12.00;10.80;;;15.30;99.90;;;;;;4912570;29;20278;-78
2022/10/15 08:20:39;;;;;;;12.40;10.93;;;15.40;99.90;;;;;;4941993;29;20205;-77
2022/10/15 08:23:05;;;;;;;12.27;11.03;;;15.50;99.90;;;;;;4909320;29;20286;-79
2022/10/15 08:25:31;;;;;;;11.70;10.33;;;15.60;99.90;;;;;;4924751;29;20283;-77
2022/10/15 08:27:57;;;;;;;13.30;9.97;;;15.70;99.90;;;;;;4918640;29;20285;-78
2022/10/15 08:30:23;;;;;;;10.30;9.40;;;15.90;99.90;;;;;;4927950;29;20203;-78
2022/10/15 08:32:49;;;;;;;12.57;9.93;;;16.00;99.90;;;;;;4913398;29;20268;-77
2022/10/15 08:35:14;;;;;;;9.60;8.60;;;16.20;99.90;;;;;;4938657;29;20235;-75
2022/10/15 08:37:40;;;;;;;12.07;9.57;;;16.40;99.90;;;;;;4913587;29;20659;-73
2022/10/15 08:40:06;;;;;;;10.43;9.53;;;16.50;99.90;;;;;;4925567;29;20222;-73
2022/10/15 08:42:43;;;;;;;9.17;8.20;;;16.60;99.90;;;;;;4914517;29;20246;-74
2022/10/15 08:45:34;;;;;;;8.47;7.63;;;16.70;99.90;;;;;;4917677;29;20190;-71
2022/10/15 08:48:06;;;;;;;8.87;8.07;;;16.80;99.90;;;;;;4912568;29;20188;-72
2022/10/15 08:51:10;;;;;;;8.53;7.73;;;16.70;99.90;;;;;;4915170;29;20309;-71
2022/10/15 08:53:46;;;;;;;9.43;8.00;;;16.80;99.90;;;;;;4906835;29;20215;-75
2022/10/15 08:56:16;;;;;;;8.33;7.50;;;16.80;99.90;;;;;;4911263;29;20562;-72
2022/10/15 08:58:49;;;;;;;8.30;7.50;;;16.90;99.90;;;;;;4917094;29;20203;-72
2022/10/15 09:01:25;;;;;;;9.53;7.50;;;17.00;99.90;;;;;;4915316;29;20208;-70
2022/10/15 09:04:05;;;;;;;7.83;7.03;;;17.10;99.90;;;;;;4918209;29;20250;-70
2022/10/15 09:06:40;;;;;;;8.20;7.40;;;17.20;99.90;;;;;;4912145;29;20710;-70
2022/10/15 09:09:37;;;;;;;8.90;7.23;;;17.20;99.90;;;;;;4913255;29;20289;-80
2022/10/15 09:12:52;;;;;;;8.77;7.87;;;17.10;99.90;;;;;;4914639;29;20287;-76
2022/10/15 09:15:20;;;;;;;9.03;8.13;;;17.00;99.90;;;;;;4918145;29;20181;-79
2022/10/15 09:17:48;;;;;;;7.47;6.80;;;17.00;99.90;;;;;;4915436;29;20227;-85
2022/10/15 09:20:22;;;;;;;9.20;8.27;;;17.00;99.90;;;;;;4924676;29;20648;-79
2022/10/15 09:22:51;;;;;;;9.37;8.43;;;17.00;99.90;;;;;;4914087;29;20573;-80
2022/10/15 09:25:20;;;;;;;9.23;7.87;;;17.00;99.90;;;;;;4919273;29;20207;-81
2022/10/15 09:27:47;;;;;;;10.07;8.97;;;17.10;99.90;;;;;;4916568;29;20556;-79
2022/10/15 09:30:42;;;;;;;11.30;9.70;;;17.10;99.90;;;;;;4930600;29;20649;-79
2022/10/15 09:33:30;;;;;;;9.23;8.33;;;17.20;99.90;;;;;;4924896;29;20219;-71
2022/10/15 09:36:22;;;;;;;9.07;8.17;;;17.40;99.90;;;;;;4926011;29;20191;-77
2022/10/15 09:39:30;;;;;;;9.90;8.90;;;17.40;99.90;;;;;;4923644;29;20212;-79
2022/10/15 09:42:15;;;;;;;9.67;8.67;;;17.50;99.90;;;;;;4912777;29;20243;-80
2022/10/15 09:44:44;;;;;;;10.07;8.53;;;17.50;99.90;;;;;;4909167;29;20199;-79
2022/10/15 09:47:23;;;;;;;9.57;8.70;;;17.60;99.90;;;;;;4925366;29;20234;-80
2022/10/15 09:49:48;;;;;;;8.57;7.87;;;17.60;99.90;;;;;;4917851;29;20197;-78
2022/10/15 09:52:38;;;;;;;10.17;9.17;;;17.70;99.90;;;;;;4930354;28;20211;-75
2022/10/15 09:55:22;;;;;;;8.33;7.43;;;17.90;99.90;;;;;;4916100;29;20215;-75
2022/10/15 09:57:52;;;;;;;8.83;7.93;;;18.00;99.90;;;;;;4925766;29;20180;-86
2022/10/15 10:00:18;;;;;;;8.93;8.03;;;18.10;99.90;;;;;;4923544;29;20192;-83
2022/10/15 10:02:43;;;;;;;10.47;9.00;;;18.10;99.90;;;;;;4915070;29;20236;-70
2022/10/15 10:05:27;;;;;;;8.00;7.30;;;18.10;99.90;;;;;;4932730;29;20195;-73
2022/10/15 10:08:08;;;;;;;7.33;6.63;;;18.30;99.90;;;;;;4910644;29;20852;-73
2022/10/15 10:10:36;;;;;;;8.23;7.43;;;18.60;99.90;;;;;;4906730;29;20213;-83
2022/10/15 10:13:04;;;;;;;7.33;6.63;;;18.90;99.90;;;;;;4920599;29;20210;-75
2022/10/15 10:15:40;;;;;;;8.03;7.23;;;19.10;99.90;;;;;;4940024;29;20197;-69
2022/10/15 10:18:17;;;;;;;7.70;6.90;;;19.00;99.90;;;;;;4915368;29;20204;-70
2022/10/15 10:20:58;;;;;;;8.47;7.60;;;19.10;99.90;;;;;;4917029;29;20190;-70
2022/10/15 10:23:35;;;;;;;7.93;7.13;;;19.10;99.90;;;;;;4918067;29;20191;-69
2022/10/15 10:26:07;;;;;;;7.70;7.00;;;19.00;99.90;;;;;;4913992;29;20201;-70
2022/10/15 10:28:36;;;;;;;7.30;6.57;;;19.00;99.90;;;;;;4916760;29;20303;-69
2022/10/15 10:31:11;;;;;;;7.90;7.13;;;19.00;99.90;;;;;;4920559;29;20219;-69
2022/10/15 10:33:43;;;;;;;7.90;7.17;;;18.70;99.90;;;;;;4917387;29;20180;-68
2022/10/15 10:36:23;;;;;;;7.80;7.00;;;18.60;99.90;;;;;;4917069;29;20176;-70
2022/10/15 10:39:13;;;;;;;7.63;6.83;;;18.50;99.90;;;;;;4918275;29;20185;-69
2022/10/15 10:42:02;;;;;;;7.70;7.00;;;18.70;99.90;;;;;;4924074;29;20567;-68
2022/10/15 10:44:33;;;;;;;8.30;7.43;;;18.80;99.90;;;;;;4918524;29;20255;-69
2022/10/15 10:47:19;;;;;;;7.43;6.80;;;19.00;99.90;;;;;;4912793;29;20607;-69
2022/10/15 10:49:53;;;;;;;7.77;6.53;;;19.20;99.90;;;;;;4920728;29;20198;-68
2022/10/15 10:52:27;;;;;;;7.93;7.33;;;19.30;99.90;;;;;;4919237;28;20319;-70
2022/10/15 10:55:16;;;;;;;7.67;6.93;;;19.40;99.90;;;;;;4920203;28;20279;-69
2022/10/15 10:57:53;;;;;;;7.10;6.40;;;19.30;99.90;;;;;;4909398;29;20220;-70
2022/10/15 11:00:35;;;;;;;6.60;6.10;;;19.50;99.90;;;;;;4912170;29;20217;-72
2022/10/15 11:03:01;;;;;;;6.97;6.47;;;19.70;99.90;;;;;;4915668;29;20512;-71
2022/10/15 11:05:30;;;;;;;5.87;5.37;;;19.90;99.90;;;;;;4919884;29;20211;-72
2022/10/15 11:08:23;;;;;;;6.37;5.60;;;19.80;99.90;;;;;;4918348;29;20213;-71
2022/10/15 11:11:18;;;;;;;6.43;5.83;;;19.90;99.90;;;;;;4918988;29;20215;-72
2022/10/15 11:14:08;;;;;;;6.13;5.60;;;19.80;99.90;;;;;;4911775;29;20199;-72
2022/10/15 11:16:48;;;;;;;7.00;6.40;;;19.90;99.90;;;;;;4913163;29;20200;-72
2022/10/15 11:19:14;;;;;;;6.10;5.53;;;20.10;99.90;;;;;;4914403;29;20182;-70
2022/10/15 11:22:08;;;;;;;7.63;6.60;;;20.10;99.90;;;;;;4917167;29;20276;-70
2022/10/15 11:24:42;;;;;;;6.57;5.97;;;20.00;99.90;;;;;;4914997;29;20590;-70
2022/10/15 11:27:39;;;;;;;6.13;5.50;;;20.00;99.90;;;;;;4908102;29;20214;-69
2022/10/15 11:30:44;;;;;;;5.17;4.77;;;20.10;99.90;;;;;;4909790;29;20226;-80
2022/10/15 11:33:38;;;;;;;4.83;4.43;;;20.10;99.90;;;;;;4909452;29;20241;-71
2022/10/15 11:36:28;;;;;;;5.73;5.30;;;20.10;99.90;;;;;;4918498;28;20210;-70
2022/10/15 11:39:22;;;;;;;5.60;4.97;;;20.10;99.90;;;;;;4917724;29;20182;-71
2022/10/15 11:42:07;;;;;;;4.80;4.40;;;20.10;99.90;;;;;;4910567;29;20211;-70
2022/10/15 11:45:07;;;;;;;5.00;4.50;;;20.00;99.90;;;;;;4918279;28;20197;-71
2022/10/15 11:47:46;;;;;;;7.10;4.43;;;20.10;99.90;;;;;;4912707;29;20312;-71
2022/10/15 11:50:29;;;;;;;4.47;4.17;;;20.30;99.90;;;;;;4921668;29;20708;-72
2022/10/15 11:53:21;;;;;;;5.20;4.70;;;20.30;99.90;;;;;;4913936;28;20624;-73
2022/10/15 11:56:11;;;;;;;4.97;4.37;;;20.40;99.90;;;;;;4915058;29;20239;-71
2022/10/15 11:58:47;;;;;;;4.30;3.90;;;20.80;99.90;;;;;;4914967;29;20654;-71
2022/10/15 12:01:18;;;;;;;4.83;4.43;;;21.20;99.90;;;;;;4914420;29;20718;-68
2022/10/15 12:03:58;;;;;;;5.37;3.90;;;21.60;99.90;;;;;;4917380;29;20191;-75
2022/10/15 12:06:31;;;;;;;4.40;4.10;;;21.90;99.90;;;;;;4914832;29;20225;-71
2022/10/15 12:08:57;;;;;;;4.03;3.60;;;22.20;99.90;;;;;;4918714;29;20544;-71
2022/10/15 12:11:38;;;;;;;4.13;3.73;;;22.70;99.90;;;;;;4915364;29;20219;-72
2022/10/15 12:14:10;;;;;;;4.03;3.63;;;23.20;99.90;;;;;;4920586;29;20222;-73
2022/10/15 12:17:00;;;;;;;4.30;3.90;;;23.60;99.90;;;;;;4910879;29;20207;-76
2022/10/15 12:19:44;;;;;;;4.38;4.03;;;23.90;99.90;;;;;;4919768;29;20194;-72
2022/10/15 12:22:10;;;;;;;4.20;3.90;;;23.90;99.90;;;;;;4919025;29;20238;-74
2022/10/15 12:24:51;;;;;;;4.07;3.78;;;23.70;99.90;;;;;;4919065;29;20638;-76
2022/10/15 12:27:22;;;;;;;3.80;3.50;;;23.20;99.90;;;;;;4918762;29;20210;-73
2022/10/15 12:30:01;;;;;;;3.97;3.45;;;22.80;99.90;;;;;;4929779;29;20199;-73
2022/10/15 12:32:29;;;;;;;4.10;3.70;;;22.60;99.90;;;;;;4906814;29;20318;-74
2022/10/15 12:34:55;;;;;;;3.95;3.55;;;22.30;99.90;;;;;;4927068;29;20202;-73
2022/10/15 12:37:25;;;;;;;4.07;3.77;;;22.30;99.90;;;;;;4933072;29;20197;-73
2022/10/15 12:40:03;;;;;;;4.23;3.50;;;22.20;99.90;;;;;;4945450;29;20201;-72
2022/10/15 12:42:33;;;;;;;4.00;3.70;;;22.00;99.90;;;;;;4926972;28;20686;-73
2022/10/15 12:45:03;;;;;;;3.70;3.40;;;21.90;99.90;;;;;;4927854;29;20202;-73
2022/10/15 12:47:49;;;;;;;4.37;3.97;;;21.80;99.90;;;;;;4915280;29;20258;-73
2022/10/15 12:50:26;;;;;;;3.50;3.27;;;21.60;99.90;;;;;;4933415;29;20249;-73
2022/10/15 12:52:56;;;;;;;3.87;3.57;;;21.50;99.90;;;;;;4912986;29;20428;-74
2022/10/15 12:55:26;;;;;;;3.57;3.23;;;21.40;99.90;;;;;;4940066;29;20240;-73